createdAt,value
2017-10-26T00:00:42.869Z,84.27
2017-10-26T00:03:10.506Z,83.94
2017-10-26T00:05:38.108Z,83.77
2017-10-26T00:08:05.723Z,83.67
2017-10-26T00:10:33.344Z,83.43
2017-10-26T00:13:00.933Z,82.39
2017-10-26T00:15:28.608Z,82.56
2017-10-26T00:17:56.190Z,81.95
2017-10-26T00:20:23.780Z,81.77
2017-10-26T00:22:51.411Z,81.73
2017-10-26T00:25:19.003Z,81.53
2017-10-26T00:27:46.640Z,81.46
2017-10-26T00:30:14.270Z,81.54
2017-10-26T00:32:41.851Z,81.68
2017-10-26T00:35:09.490Z,82.43
2017-10-26T00:37:37.081Z,82.73
2017-10-26T00:40:05.039Z,82.73
2017-10-26T00:42:32.641Z,82.99
2017-10-26T00:45:00.241Z,83.14
2017-10-26T00:47:27.855Z,83.28
2017-10-26T00:49:55.461Z,83.38
2017-10-26T00:52:23.349Z,83.27
2017-10-26T00:54:50.949Z,83.71
2017-10-26T00:57:18.548Z,83.59
2017-10-26T00:59:46.173Z,83.46
2017-10-26T01:02:13.772Z,83.42
2017-10-26T01:04:41.417Z,83.33
2017-10-26T01:07:09.333Z,83.27
2017-10-26T01:09:36.946Z,83.46
2017-10-26T01:12:04.582Z,83.32
2017-10-26T01:14:32.177Z,83.61
2017-10-26T01:17:00.091Z,83.57
2017-10-26T01:19:27.672Z,83.61
2017-10-26T01:21:55.287Z,83.96
2017-10-26T01:24:22.910Z,84.08
2017-10-26T01:26:50.510Z,84.26
2017-10-26T01:29:18.147Z,84.28
2017-10-26T01:31:46.068Z,84.15
2017-10-26T01:34:13.674Z,83.96
2017-10-26T01:36:41.299Z,83.98
2017-10-26T01:39:08.905Z,84.24
2017-10-26T01:41:36.551Z,84.17
2017-10-26T01:44:04.166Z,84.31
2017-10-26T01:46:32.158Z,84.71
2017-10-26T01:48:59.772Z,85.06
2017-10-26T01:51:27.386Z,85.27
2017-10-26T01:53:55.028Z,85.44
2017-10-26T01:56:22.629Z,85.59
2017-10-26T01:58:50.241Z,85.78
2017-10-26T02:01:18.119Z,85.67
2017-10-26T02:03:45.713Z,85.73
2017-10-26T02:06:13.301Z,85.40
2017-10-26T02:08:40.935Z,85.54
2017-10-26T02:11:08.528Z,85.72
2017-10-26T02:13:36.140Z,85.23
2017-10-26T02:16:03.766Z,85.13
2017-10-26T02:18:31.397Z,85.44
2017-10-26T02:20:59.037Z,85.40
2017-10-26T02:23:26.881Z,85.26
2017-10-26T02:25:54.468Z,85.39
2017-10-26T02:28:22.120Z,85.21
2017-10-26T02:31:01.854Z,85.22
2017-10-26T02:33:29.474Z,85.53
2017-10-26T02:35:57.074Z,85.52
2017-10-26T02:38:25.060Z,85.29
2017-10-26T02:40:52.675Z,85.22
2017-10-26T02:43:20.316Z,85.34
2017-10-26T02:45:47.943Z,85.68
2017-10-26T02:48:15.554Z,85.61
2017-10-26T02:50:43.471Z,85.49
2017-10-26T02:53:11.061Z,85.25
2017-10-26T02:55:38.710Z,85.22
2017-10-26T02:58:06.319Z,85.62
2017-10-26T03:00:33.923Z,85.74
2017-10-26T03:03:01.554Z,85.71
2017-10-26T03:05:29.146Z,85.95
2017-10-26T03:07:56.772Z,86.18
2017-10-26T03:10:24.674Z,85.85
2017-10-26T03:12:52.287Z,86.02
2017-10-26T03:15:19.903Z,85.63
2017-10-26T03:17:47.560Z,85.45
2017-10-26T03:20:15.197Z,85.35
2017-10-26T03:22:42.790Z,85.27
2017-10-26T03:25:10.383Z,85.56
2017-10-26T03:27:38.312Z,85.57
2017-10-26T03:30:06.184Z,85.32
2017-10-26T03:32:33.830Z,85.39
2017-10-26T03:35:01.434Z,85.18
2017-10-26T03:37:29.038Z,85.16
2017-10-26T03:39:56.684Z,85.23
2017-10-26T03:42:24.592Z,85.39
2017-10-26T03:44:52.235Z,85.56
2017-10-26T03:47:19.853Z,85.45
2017-10-26T03:49:47.485Z,85.41
2017-10-26T03:52:15.149Z,85.28
2017-10-26T03:54:42.748Z,85.48
2017-10-26T03:57:10.405Z,85.80
2017-10-26T03:59:38.110Z,85.78
2017-10-26T04:02:05.702Z,85.51
2017-10-26T04:04:33.329Z,85.88
2017-10-26T04:07:00.940Z,85.83
2017-10-26T04:09:28.613Z,85.78
2017-10-26T04:11:56.552Z,85.91
2017-10-26T04:14:24.183Z,85.92
2017-10-26T04:16:51.803Z,86.35
2017-10-26T04:19:19.397Z,86.19
2017-10-26T04:21:47.051Z,86.00
2017-10-26T04:24:14.649Z,86.02
2017-10-26T04:26:42.282Z,85.88
2017-10-26T04:29:09.942Z,85.99
2017-10-26T04:31:37.553Z,86.10
2017-10-26T04:34:05.210Z,86.02
2017-10-26T04:36:32.813Z,86.59
2017-10-26T04:39:00.402Z,86.61
2017-10-26T04:41:28.069Z,86.45
2017-10-26T04:43:55.708Z,86.21
2017-10-26T04:46:23.337Z,86.22
2017-10-26T04:48:50.939Z,86.11
2017-10-26T04:51:18.561Z,86.33
2017-10-26T04:53:46.521Z,86.19
2017-10-26T04:56:14.132Z,86.71
2017-10-26T04:58:41.771Z,86.64
2017-10-26T05:01:09.357Z,86.53
2017-10-26T05:03:36.970Z,86.06
2017-10-26T05:06:04.604Z,86.21
2017-10-26T05:08:32.193Z,86.54
2017-10-26T05:10:59.832Z,86.46
2017-10-26T05:13:27.452Z,86.45
2017-10-26T05:15:55.052Z,86.71
2017-10-26T05:18:22.668Z,86.55
2017-10-26T05:20:50.269Z,86.41
2017-10-26T05:23:17.897Z,86.35
2017-10-26T05:25:45.839Z,86.11
2017-10-26T05:28:13.437Z,86.21
2017-10-26T05:30:41.059Z,86.41
2017-10-26T05:33:08.766Z,86.43
2017-10-26T05:35:36.466Z,86.33
2017-10-26T05:38:04.053Z,86.19
2017-10-26T05:40:32.345Z,86.01
2017-10-26T05:42:59.960Z,86.02
2017-10-26T05:45:27.550Z,86.07
2017-10-26T05:47:55.182Z,86.21
2017-10-26T05:50:22.771Z,86.10
2017-10-26T05:52:50.639Z,85.87
2017-10-26T05:55:18.276Z,85.67
2017-10-26T05:57:45.868Z,85.59
2017-10-26T06:00:13.492Z,85.56
2017-10-26T06:02:41.094Z,85.57
2017-10-26T06:05:08.691Z,85.58
2017-10-26T06:07:36.621Z,85.23
2017-10-26T06:10:04.284Z,85.22
2017-10-26T06:12:32.251Z,85.26
2017-10-26T06:14:59.846Z,85.24
2017-10-26T06:17:27.446Z,85.71
2017-10-26T06:19:55.131Z,86.00
2017-10-26T06:22:22.724Z,86.21
2017-10-26T06:24:50.990Z,86.18
2017-10-26T06:27:18.572Z,86.20
2017-10-26T06:29:46.162Z,86.06
2017-10-26T06:32:13.824Z,85.96
2017-10-26T06:34:41.425Z,85.88
2017-10-26T06:37:09.055Z,86.01
2017-10-26T06:39:36.657Z,86.09
2017-10-26T06:42:04.516Z,86.50
2017-10-26T06:44:32.137Z,85.97
2017-10-26T06:47:00.047Z,85.79
2017-10-26T06:49:27.684Z,85.77
2017-10-26T06:51:55.573Z,85.73
2017-10-26T06:54:23.923Z,85.69
2017-10-26T06:56:51.564Z,85.57
2017-10-26T06:59:19.144Z,85.33
2017-10-26T07:01:46.782Z,84.90
2017-10-26T07:04:14.381Z,84.96
2017-10-26T07:06:41.984Z,84.34
2017-10-26T07:09:09.668Z,83.74
2017-10-26T07:11:37.269Z,83.99
2017-10-26T07:14:04.910Z,83.62
2017-10-26T07:16:32.529Z,83.00
2017-10-26T07:19:00.118Z,82.59
2017-10-26T07:21:27.741Z,82.19
2017-10-26T07:23:55.360Z,82.29
2017-10-26T07:26:22.993Z,81.54
2017-10-26T07:28:50.593Z,81.51
2017-10-26T07:31:18.213Z,81.74
2017-10-26T07:33:45.879Z,82.40
2017-10-26T07:36:13.539Z,82.77
2017-10-26T07:38:41.233Z,82.38
2017-10-26T07:41:08.882Z,82.25
2017-10-26T07:43:36.522Z,82.17
2017-10-26T07:46:04.152Z,82.18
2017-10-26T07:48:32.029Z,81.75
2017-10-26T07:50:59.713Z,81.23
2017-10-26T07:53:27.384Z,81.96
2017-10-26T07:55:55.012Z,81.61
2017-10-26T07:58:22.879Z,81.19
2017-10-26T08:00:50.497Z,80.87
2017-10-26T08:03:19.377Z,80.76
2017-10-26T08:05:46.988Z,80.86
2017-10-26T08:08:14.585Z,80.82
2017-10-26T08:10:42.209Z,80.11
2017-10-26T08:13:09.820Z,80.31
2017-10-26T08:15:37.469Z,79.53
2017-10-26T08:18:05.372Z,79.67
2017-10-26T08:20:32.980Z,79.77
2017-10-26T08:23:00.656Z,79.73
2017-10-26T08:25:28.269Z,79.34
2017-10-26T08:27:55.917Z,79.43
2017-10-26T08:30:23.843Z,78.47
2017-10-26T08:32:51.429Z,78.56
2017-10-26T08:35:19.064Z,78.46
2017-10-26T08:37:46.657Z,78.54
2017-10-26T08:40:14.334Z,77.89
2017-10-26T08:42:41.958Z,77.95
2017-10-26T08:45:09.564Z,77.69
2017-10-26T08:47:37.154Z,76.95
2017-10-26T08:50:04.799Z,76.47
2017-10-26T08:52:32.389Z,76.25
2017-10-26T08:54:59.992Z,75.98
2017-10-26T08:57:27.608Z,76.25
2017-10-26T08:59:55.215Z,75.30
2017-10-26T09:02:22.853Z,75.71
2017-10-26T09:04:50.477Z,75.33
2017-10-26T09:07:18.066Z,75.83
2017-10-26T09:09:45.697Z,75.47
2017-10-26T09:12:13.464Z,75.75
2017-10-26T09:14:41.092Z,76.08
2017-10-26T09:17:08.681Z,76.07
2017-10-26T09:19:36.282Z,75.81
2017-10-26T09:22:03.901Z,75.97
2017-10-26T09:24:32.365Z,75.83
2017-10-26T09:27:00.025Z,76.39
2017-10-26T09:29:27.625Z,75.97
2017-10-26T09:31:55.254Z,74.73
2017-10-26T09:34:22.881Z,74.70
2017-10-26T09:36:50.481Z,74.32
2017-10-26T09:39:18.154Z,73.41
2017-10-26T09:41:45.745Z,73.44
2017-10-26T09:44:13.363Z,73.83
2017-10-26T09:46:41.013Z,73.41
2017-10-26T09:49:08.609Z,73.18
2017-10-26T09:51:36.272Z,73.21
2017-10-26T09:54:03.890Z,72.83
2017-10-26T09:56:31.738Z,72.27
2017-10-26T09:58:59.357Z,72.06
2017-10-26T10:01:26.955Z,71.54
2017-10-26T10:03:54.585Z,70.98
2017-10-26T10:06:22.194Z,70.34
2017-10-26T10:08:49.788Z,70.48
2017-10-26T10:11:17.753Z,69.68
2017-10-26T10:13:45.385Z,69.70
2017-10-26T10:16:13.008Z,69.96
2017-10-26T10:18:40.627Z,69.89
2017-10-26T10:21:08.595Z,69.71
2017-10-26T10:23:36.221Z,69.46
2017-10-26T10:26:03.833Z,69.15
2017-10-26T10:28:31.465Z,68.81
2017-10-26T10:30:59.087Z,69.48
2017-10-26T10:33:26.717Z,69.78
2017-10-26T10:35:54.338Z,70.42
2017-10-26T10:38:21.936Z,69.91
2017-10-26T10:40:49.803Z,70.97
2017-10-26T10:43:17.402Z,70.85
2017-10-26T10:45:45.025Z,70.83
2017-10-26T10:48:12.873Z,71.46
2017-10-26T10:50:40.465Z,70.46
2017-10-26T10:53:08.104Z,70.64
2017-10-26T10:55:35.712Z,69.91
2017-10-26T10:58:03.712Z,70.15
2017-10-26T11:00:34.104Z,69.21
2017-10-26T11:03:01.693Z,68.81
2017-10-26T11:05:29.312Z,68.58
2017-10-26T11:07:56.913Z,69.34
2017-10-26T11:10:24.561Z,70.31
2017-10-26T11:12:52.671Z,70.39
2017-10-26T11:15:20.564Z,70.99
2017-10-26T11:17:48.509Z,71.31
2017-10-26T11:20:16.348Z,70.96
2017-10-26T11:22:43.985Z,70.83
2017-10-26T11:25:11.583Z,71.24
2017-10-26T11:27:39.197Z,71.58
2017-10-26T11:30:06.982Z,71.83
2017-10-26T11:32:34.577Z,71.88
2017-10-26T11:35:02.565Z,72.12
2017-10-26T11:37:30.205Z,71.70
2017-10-26T11:39:57.789Z,70.82
2017-10-26T11:42:25.418Z,70.92
2017-10-26T11:44:53.426Z,71.77
2017-10-26T11:47:21.060Z,71.63
2017-10-26T11:49:48.957Z,71.47
2017-10-26T11:52:16.585Z,71.69
2017-10-26T11:54:44.213Z,71.71
2017-10-26T11:57:11.811Z,71.56
2017-10-26T11:59:39.471Z,71.52
2017-10-26T12:02:07.168Z,71.84
2017-10-26T12:04:34.781Z,72.15
2017-10-26T12:07:02.793Z,71.86
2017-10-26T12:09:38.074Z,71.70
2017-10-26T12:12:05.709Z,71.69
2017-10-26T12:14:33.564Z,71.26
2017-10-26T12:17:01.161Z,71.19
2017-10-26T12:19:28.791Z,70.79
2017-10-26T12:21:56.665Z,71.50
2017-10-26T12:24:24.281Z,71.59
2017-10-26T12:26:51.868Z,71.68
2017-10-26T12:29:19.460Z,71.97
2017-10-26T12:31:47.086Z,71.82
2017-10-26T12:34:14.691Z,72.01
2017-10-26T12:36:42.329Z,72.91
2017-10-26T12:39:09.916Z,73.64
2017-10-26T12:41:37.564Z,73.93
2017-10-26T12:44:05.209Z,74.08
2017-10-26T12:46:32.881Z,74.14
2017-10-26T12:49:05.503Z,74.46
2017-10-26T12:51:33.097Z,74.44
2017-10-26T12:54:00.693Z,74.70
2017-10-26T12:56:28.310Z,74.70
2017-10-26T12:58:55.901Z,74.78
2017-10-26T13:01:23.533Z,75.11
2017-10-26T13:03:51.646Z,75.02
2017-10-26T13:06:19.255Z,75.07
2017-10-26T13:08:46.900Z,75.08
2017-10-26T13:11:14.503Z,75.50
2017-10-26T13:13:42.585Z,75.57
2017-10-26T13:16:10.183Z,75.54
2017-10-26T13:18:38.144Z,75.53
2017-10-26T13:21:05.773Z,75.26
2017-10-26T13:23:33.372Z,75.38
2017-10-26T13:26:01.024Z,75.36
2017-10-26T13:28:28.624Z,75.23
2017-10-26T13:30:56.235Z,75.05
2017-10-26T13:33:23.846Z,75.05
2017-10-26T13:35:51.471Z,74.44
2017-10-26T13:38:19.108Z,74.76
2017-10-26T13:40:46.702Z,74.48
2017-10-26T13:43:14.681Z,74.33
2017-10-26T13:45:42.302Z,73.46
2017-10-26T13:48:09.911Z,73.40
2017-10-26T13:50:37.548Z,72.92
2017-10-26T13:53:05.142Z,73.16
2017-10-26T13:55:32.748Z,72.46
2017-10-26T13:58:00.648Z,71.72
2017-10-26T14:00:28.258Z,71.55
2017-10-26T14:02:55.894Z,71.51
2017-10-26T14:05:23.834Z,71.53
2017-10-26T14:07:51.433Z,71.74
2017-10-26T14:10:19.090Z,71.92
2017-10-26T14:12:46.701Z,71.84
2017-10-26T14:15:14.344Z,72.03
2017-10-26T14:17:42.257Z,72.52
2017-10-26T14:20:09.888Z,72.56
2017-10-26T14:22:37.790Z,72.56
2017-10-26T14:25:05.760Z,73.02
2017-10-26T14:27:33.720Z,73.32
2017-10-26T14:30:01.332Z,73.12
2017-10-26T14:32:28.949Z,73.22
2017-10-26T14:34:56.574Z,73.17
2017-10-26T14:37:24.194Z,73.43
2017-10-26T14:39:51.850Z,73.13
2017-10-26T14:42:19.724Z,73.33
2017-10-26T14:44:47.371Z,73.58
2017-10-26T14:47:14.986Z,73.47
2017-10-26T14:49:42.585Z,73.61
2017-10-26T14:52:10.221Z,73.85
2017-10-26T14:54:37.843Z,74.04
2017-10-26T14:57:05.939Z,74.12
2017-10-26T14:59:33.589Z,74.06
2017-10-26T15:02:01.211Z,74.31
2017-10-26T15:04:28.840Z,74.15
2017-10-26T15:06:56.488Z,73.99
2017-10-26T15:09:24.106Z,74.25
2017-10-26T15:11:52.177Z,74.12
2017-10-26T15:14:19.778Z,74.23
2017-10-26T15:16:47.701Z,74.32
2017-10-26T15:19:15.305Z,74.27
2017-10-26T15:21:42.898Z,74.37
2017-10-26T15:24:10.528Z,74.59
2017-10-26T15:26:38.116Z,74.85
2017-10-26T15:29:05.805Z,74.87
2017-10-26T15:31:33.395Z,75.30
2017-10-26T15:34:01.040Z,75.44
2017-10-26T15:36:28.657Z,75.26
2017-10-26T15:38:56.576Z,75.15
2017-10-26T15:41:24.233Z,75.29
2017-10-26T15:43:51.842Z,75.40
2017-10-26T15:46:19.481Z,75.39
2017-10-26T15:48:47.105Z,75.53
2017-10-26T15:51:14.744Z,75.97
2017-10-26T15:53:42.765Z,76.01
2017-10-26T15:56:10.631Z,76.01
2017-10-26T15:58:38.293Z,76.16
2017-10-26T16:01:05.912Z,76.27
2017-10-26T16:03:33.502Z,76.46
2017-10-26T16:06:01.487Z,76.64
2017-10-26T16:08:29.088Z,76.53
2017-10-26T16:10:57.027Z,76.58
2017-10-26T16:13:24.644Z,76.54
2017-10-26T16:15:53.879Z,76.48
2017-10-26T16:18:22.100Z,76.68
2017-10-26T16:20:49.731Z,76.47
2017-10-26T16:23:17.351Z,76.60
2017-10-26T16:25:44.945Z,76.64
2017-10-26T16:28:12.572Z,76.42
2017-10-26T16:30:40.162Z,76.05
2017-10-26T16:33:08.028Z,75.92
2017-10-26T16:35:35.653Z,75.95
2017-10-26T16:38:03.261Z,75.81
2017-10-26T16:40:30.915Z,75.81
2017-10-26T16:42:58.560Z,75.74
2017-10-26T16:45:39.305Z,75.46
2017-10-26T16:48:25.936Z,75.59
2017-10-26T16:50:54.932Z,75.61
2017-10-26T16:53:22.809Z,75.79
2017-10-26T16:55:50.399Z,75.59
2017-10-26T16:58:18.053Z,75.37
2017-10-26T17:00:45.901Z,75.31
2017-10-26T17:03:13.525Z,74.96
2017-10-26T17:05:41.133Z,75.25
2017-10-26T17:08:08.742Z,74.86
2017-10-26T17:10:36.404Z,74.85
2017-10-26T17:13:04.024Z,74.49
2017-10-26T17:15:31.725Z,74.71
2017-10-26T17:17:59.341Z,74.60
2017-10-26T17:20:26.946Z,74.56
2017-10-26T17:22:54.647Z,74.31
2017-10-26T17:25:22.246Z,74.40
2017-10-26T17:27:49.886Z,74.70
2017-10-26T17:30:17.494Z,74.85
2017-10-26T17:32:45.129Z,74.76
2017-10-26T17:35:12.745Z,75.03
2017-10-26T17:37:40.341Z,75.05
2017-10-26T17:40:08.006Z,75.12
2017-10-26T17:42:35.596Z,75.03
2017-10-26T17:45:03.229Z,75.17
2017-10-26T17:47:31.228Z,75.24
2017-10-26T17:49:58.853Z,75.24
2017-10-26T17:52:26.513Z,75.28
2017-10-26T17:54:54.125Z,75.22
2017-10-26T17:57:21.747Z,75.25
2017-10-26T17:59:49.395Z,75.24
2017-10-26T18:02:16.994Z,75.04
2017-10-26T18:04:44.607Z,75.00
2017-10-26T18:07:12.605Z,75.16
2017-10-26T18:09:40.231Z,75.03
2017-10-26T18:12:07.835Z,74.90
2017-10-26T18:14:35.525Z,74.94
2017-10-26T18:17:03.456Z,74.94
2017-10-26T18:19:31.084Z,75.04
2017-10-26T18:21:58.704Z,75.22
2017-10-26T18:24:26.298Z,75.35
2017-10-26T18:26:53.945Z,75.46
2017-10-26T18:29:21.574Z,75.63
2017-10-26T18:31:49.239Z,75.87
2017-10-26T18:34:17.105Z,75.68
2017-10-26T18:36:44.707Z,76.34
2017-10-26T18:39:12.370Z,76.52
2017-10-26T18:41:39.986Z,77.17
2017-10-26T18:44:07.628Z,77.19
2017-10-26T18:46:35.249Z,77.13
2017-10-26T18:49:02.858Z,77.37
2017-10-26T18:51:30.484Z,77.45
2017-10-26T18:53:58.139Z,77.33
2017-10-26T18:56:25.786Z,77.40
2017-10-26T18:58:53.400Z,77.56
2017-10-26T19:01:21.043Z,77.68
2017-10-26T19:03:48.955Z,77.39
2017-10-26T19:06:16.539Z,77.67
2017-10-26T19:08:44.171Z,77.27
2017-10-26T19:11:11.804Z,77.50
2017-10-26T19:13:39.408Z,77.38
2017-10-26T19:16:07.375Z,77.17
2017-10-26T19:18:35.025Z,76.96
2017-10-26T19:21:02.706Z,76.71
2017-10-26T19:23:30.672Z,76.38
2017-10-26T19:25:58.324Z,76.11
2017-10-26T19:28:25.966Z,76.00
2017-10-26T19:30:53.862Z,76.04
2017-10-26T19:33:21.836Z,75.94
2017-10-26T19:35:49.477Z,75.94
2017-10-26T19:38:17.086Z,76.11
2017-10-26T19:40:44.697Z,76.06
2017-10-26T19:43:12.296Z,76.41
2017-10-26T19:45:40.267Z,76.81
2017-10-26T19:48:07.887Z,77.21
2017-10-26T19:50:35.507Z,77.82
2017-10-26T19:53:03.149Z,77.83
2017-10-26T19:55:30.766Z,78.57
2017-10-26T19:57:58.397Z,78.94
2017-10-26T20:00:26.032Z,78.88
2017-10-26T20:02:53.653Z,79.07
2017-10-26T20:05:21.968Z,79.81
2017-10-26T20:07:49.941Z,79.82
2017-10-26T20:10:17.580Z,79.89
2017-10-26T20:12:45.201Z,80.18
2017-10-26T20:15:12.801Z,80.44
2017-10-26T20:17:40.441Z,80.78
2017-10-26T20:20:08.152Z,81.56
2017-10-26T20:22:35.815Z,81.56
2017-10-26T20:25:03.503Z,81.67
2017-10-26T20:27:31.136Z,82.36
2017-10-26T20:29:59.105Z,82.73
2017-10-26T20:32:26.725Z,82.78
2017-10-26T20:34:54.393Z,83.15
2017-10-26T20:37:22.000Z,83.14
2017-10-26T20:39:49.601Z,83.38
2017-10-26T20:42:17.234Z,83.18
2017-10-26T20:44:44.868Z,83.42
2017-10-26T20:47:12.504Z,83.20
2017-10-26T20:52:47.796Z,83.09
2017-10-26T20:55:21.005Z,83.29
2017-10-26T20:57:54.264Z,83.30
2017-10-26T21:00:27.256Z,83.41
2017-10-26T21:03:00.485Z,83.13
2017-10-26T21:05:33.815Z,83.06
2017-10-26T21:08:05.261Z,83.25
2017-10-26T21:10:38.613Z,83.01
2017-10-26T21:13:11.835Z,82.95
2017-10-26T21:15:39.431Z,82.84
2017-10-26T21:18:07.445Z,83.06
2017-10-26T21:20:35.314Z,82.56
2017-10-26T21:23:02.937Z,82.72
2017-10-26T21:25:30.638Z,82.39
2017-10-26T21:27:58.277Z,81.84
2017-10-26T21:30:25.874Z,81.70
2017-10-26T21:32:53.497Z,81.05
2017-10-26T21:35:21.098Z,80.95
2017-10-26T21:37:49.063Z,80.72
2017-10-26T21:40:16.658Z,80.37
2017-10-26T21:42:44.266Z,80.48
2017-10-26T21:45:11.902Z,80.39
2017-10-26T21:47:39.505Z,80.39
2017-10-26T21:50:07.150Z,80.41
2017-10-26T21:52:34.761Z,80.42
2017-10-26T21:55:02.702Z,80.18
2017-10-26T21:57:30.356Z,80.07
2017-10-26T21:59:57.975Z,79.95
2017-10-26T22:02:25.624Z,79.92
2017-10-26T22:04:53.237Z,79.80
2017-10-26T22:07:20.847Z,79.83
2017-10-26T22:09:48.504Z,79.96
2017-10-26T22:12:16.662Z,80.09
2017-10-26T22:14:44.334Z,79.92
2017-10-26T22:17:11.988Z,79.96
2017-10-26T22:19:39.577Z,79.63
2017-10-26T22:22:07.210Z,79.82
2017-10-26T22:24:34.855Z,79.86
2017-10-26T22:27:02.559Z,79.62
2017-10-26T22:29:30.177Z,79.71
2017-10-26T22:31:57.764Z,80.03
2017-10-26T22:34:25.390Z,79.68
2017-10-26T22:36:53.004Z,79.92
2017-10-26T22:39:20.937Z,80.01
2017-10-26T22:41:48.531Z,80.22
2017-10-26T22:44:16.138Z,80.48
2017-10-26T22:46:43.756Z,80.10
2017-10-26T22:49:11.697Z,79.99
2017-10-26T22:51:39.325Z,80.04
2017-10-26T22:54:07.348Z,79.93
2017-10-26T22:56:35.200Z,80.02
2017-10-26T22:59:02.865Z,80.18
2017-10-26T23:01:30.481Z,80.11
2017-10-26T23:03:58.108Z,80.04
2017-10-26T23:06:25.956Z,79.85
2017-10-26T23:08:53.820Z,79.97
2017-10-26T23:11:21.444Z,80.16
2017-10-26T23:13:49.053Z,80.08
2017-10-26T23:16:16.684Z,80.67
2017-10-26T23:18:44.581Z,81.09
2017-10-26T23:21:12.198Z,81.15
2017-10-26T23:23:39.827Z,80.92
2017-10-26T23:26:07.418Z,80.85
2017-10-26T23:28:35.337Z,81.03
2017-10-26T23:31:02.973Z,81.11
2017-10-26T23:33:30.865Z,80.81
2017-10-26T23:35:58.480Z,80.84
2017-10-26T23:38:26.078Z,81.23
2017-10-26T23:40:53.783Z,81.15
2017-10-26T23:43:21.373Z,80.99
2017-10-26T23:45:49.006Z,80.80
2017-10-26T23:48:16.949Z,80.61
2017-10-26T23:50:44.595Z,80.58
2017-10-26T23:53:12.585Z,80.80
2017-10-26T23:55:40.180Z,80.75
2017-10-26T23:58:07.784Z,80.80
